sensor_id;sensor_type;location;lat;lon;timestamp;pressure;altitude;pressure_sealevel;temperature;humidity
71770;BME280;66386;52.122;5.420;2024-01-27T00:01:51;103503.28;;;0.98;100.00
71770;BME280;66386;52.122;5.420;2024-01-27T00:04:17;103503.44;;;1.01;100.00
71770;BME280;66386;52.122;5.420;2024-01-27T00:06:44;103500.91;;;1.01;100.00
71770;BME280;66386;52.122;5.420;2024-01-27T00:09:11;103497.34;;;0.98;100.00
71770;BME280;66386;52.122;5.420;2024-01-27T00:11:37;103509.06;;;0.96;100.00
71770;BME280;66386;52.122;5.420;2024-01-27T00:14:04;103507.25;;;0.93;100.00
71770;BME280;66386;52.122;5.420;2024-01-27T00:16:30;103506.19;;;0.88;100.00
71770;BME280;66386;52.122;5.420;2024-01-27T00:18:57;103507.78;;;0.86;100.00
71770;BME280;66386;52.122;5.420;2024-01-27T00:21:24;103507.69;;;0.84;100.00
71770;BME280;66386;52.122;5.420;2024-01-27T00:23:50;103503.47;;;0.83;100.00
71770;BME280;66386;52.122;5.420;2024-01-27T00:26:17;103504.31;;;0.84;100.00
71770;BME280;66386;52.122;5.420;2024-01-27T00:28:44;103499.19;;;0.82;100.00
71770;BME280;66386;52.122;5.420;2024-01-27T00:31:10;103503.28;;;0.80;100.00
71770;BME280;66386;52.122;5.420;2024-01-27T00:33:37;103514.09;;;0.76;100.00
71770;BME280;66386;52.122;5.420;2024-01-27T00:36:04;103504.53;;;0.71;100.00
71770;BME280;66386;52.122;5.420;2024-01-27T00:38:31;103501.03;;;0.68;100.00
71770;BME280;66386;52.122;5.420;2024-01-27T00:40:57;103507.78;;;0.68;100.00
71770;BME280;66386;52.122;5.420;2024-01-27T00:43:24;103508.28;;;0.61;100.00
71770;BME280;66386;52.122;5.420;2024-01-27T00:45:50;103508.28;;;0.61;100.00
71770;BME280;66386;52.122;5.420;2024-01-27T00:48:17;103506.47;;;0.58;100.00
71770;BME280;66386;52.122;5.420;2024-01-27T00:50:44;103495.50;;;0.58;100.00
71770;BME280;66386;52.122;5.420;2024-01-27T00:53:11;103497.16;;;0.57;100.00
71770;BME280;66386;52.122;5.420;2024-01-27T00:55:38;103495.34;;;0.55;100.00
71770;BME280;66386;52.122;5.420;2024-01-27T00:58:04;103499.44;;;0.52;100.00
71770;BME280;66386;52.122;5.420;2024-01-27T01:00:31;103500.84;;;0.46;100.00
71770;BME280;66386;52.122;5.420;2024-01-27T01:02:58;103510.25;;;0.48;100.00
71770;BME280;66386;52.122;5.420;2024-01-27T01:05:25;103500.25;;;0.51;100.00
71770;BME280;66386;52.122;5.420;2024-01-27T01:07:51;103505.97;;;0.47;100.00
71770;BME280;66386;52.122;5.420;2024-01-27T01:10:18;103510.09;;;0.45;100.00
71770;BME280;66386;52.122;5.420;2024-01-27T01:12:44;103511.75;;;0.45;100.00
71770;BME280;66386;52.122;5.420;2024-01-27T01:15:11;103513.34;;;0.43;100.00
71770;BME280;66386;52.122;5.420;2024-01-27T01:17:38;103519.91;;;0.39;100.00
71770;BME280;66386;52.122;5.420;2024-01-27T01:20:05;103524.88;;;0.38;100.00
71770;BME280;66386;52.122;5.420;2024-01-27T01:22:32;103523.00;;;0.33;100.00
71770;BME280;66386;52.122;5.420;2024-01-27T01:24:59;103525.38;;;0.30;100.00
71770;BME280;66386;52.122;5.420;2024-01-27T01:27:25;103520.31;;;0.30;100.00
71770;BME280;66386;52.122;5.420;2024-01-27T01:29:52;103518.59;;;0.29;100.00
71770;BME280;66386;52.122;5.420;2024-01-27T01:32:20;103516.72;;;0.25;100.00
71770;BME280;66386;52.122;5.420;2024-01-27T01:34:47;103512.44;;;0.24;100.00
71770;BME280;66386;52.122;5.420;2024-01-27T01:37:14;103504.78;;;0.23;100.00
71770;BME280;66386;52.122;5.420;2024-01-27T01:39:41;103518.94;;;0.19;100.00
71770;BME280;66386;52.122;5.420;2024-01-27T01:42:07;103512.84;;;0.15;100.00
71770;BME280;66386;52.122;5.420;2024-01-27T01:44:34;103499.41;;;0.16;100.00
71770;BME280;66386;52.122;5.420;2024-01-27T01:47:00;103506.94;;;0.15;100.00
71770;BME280;66386;52.122;5.420;2024-01-27T01:49:27;103517.84;;;0.14;100.00
71770;BME280;66386;52.122;5.420;2024-01-27T01:51:54;103512.69;;;0.12;100.00
71770;BME280;66386;52.122;5.420;2024-01-27T01:54:21;103523.75;;;0.14;100.00
71770;BME280;66386;52.122;5.420;2024-01-27T01:56:49;103529.47;;;0.10;100.00
71770;BME280;66386;52.122;5.420;2024-01-27T01:59:16;103532.00;;;0.10;100.00
71770;BME280;66386;52.122;5.420;2024-01-27T02:01:42;103534.41;;;0.09;100.00
71770;BME280;66386;52.122;5.420;2024-01-27T02:04:11;103537.63;;;0.05;100.00
71770;BME280;66386;52.122;5.420;2024-01-27T02:06:38;103539.09;;;0.01;100.00
71770;BME280;66386;52.122;5.420;2024-01-27T02:09:05;103531.44;;;-0.01;100.00
71770;BME280;66386;52.122;5.420;2024-01-27T02:11:31;103524.75;;;0.00;100.00
71770;BME280;66386;52.122;5.420;2024-01-27T02:13:58;103519.69;;;0.00;100.00
71770;BME280;66386;52.122;5.420;2024-01-27T02:16:24;103517.06;;;-0.02;100.00
71770;BME280;66386;52.122;5.420;2024-01-27T02:18:51;103527.81;;;-0.06;100.00
71770;BME280;66386;52.122;5.420;2024-01-27T02:21:18;103528.53;;;-0.08;100.00
71770;BME280;66386;52.122;5.420;2024-01-27T02:23:45;103520.94;;;-0.08;100.00
71770;BME280;66386;52.122;5.420;2024-01-27T02:26:11;103526.72;;;-0.11;100.00
71770;BME280;66386;52.122;5.420;2024-01-27T02:28:38;103516.59;;;-0.11;100.00
71770;BME280;66386;52.122;5.420;2024-01-27T02:31:04;103527.69;;;-0.09;100.00
71770;BME280;66386;52.122;5.420;2024-01-27T02:33:31;103521.59;;;-0.12;100.00
71770;BME280;66386;52.122;5.420;2024-01-27T02:35:58;103514.00;;;-0.12;100.00
71770;BME280;66386;52.122;5.420;2024-01-27T02:38:24;103513.28;;;-0.10;100.00
71770;BME280;66386;52.122;5.420;2024-01-27T02:40:51;103520.31;;;-0.04;100.00
71770;BME280;66386;52.122;5.420;2024-01-27T02:43:18;103517.78;;;-0.04;100.00
71770;BME280;66386;52.122;5.420;2024-01-27T02:45:44;103521.09;;;-0.05;100.00
71770;BME280;66386;52.122;5.420;2024-01-27T02:48:11;103524.41;;;-0.06;100.00
71770;BME280;66386;52.122;5.420;2024-01-27T02:50:37;103539.50;;;-0.08;100.00
71770;BME280;66386;52.122;5.420;2024-01-27T02:53:04;103536.97;;;-0.08;100.00
71770;BME280;66386;52.122;5.420;2024-01-27T02:55:30;103529.47;;;-0.06;100.00
71770;BME280;66386;52.122;5.420;2024-01-27T02:57:57;103531.22;;;-0.05;100.00
71770;BME280;66386;52.122;5.420;2024-01-27T03:00:23;103525.31;;;-0.06;100.00
71770;BME280;66386;52.122;5.420;2024-01-27T03:02:50;103524.63;;;-0.02;100.00
71770;BME280;66386;52.122;5.420;2024-01-27T03:05:17;103529.00;;;0.01;100.00
71770;BME280;66386;52.122;5.420;2024-01-27T03:07:43;103531.53;;;0.01;100.00
71770;BME280;66386;52.122;5.420;2024-01-27T03:10:10;103533.13;;;-0.01;100.00
71770;BME280;66386;52.122;5.420;2024-01-27T03:12:37;103535.56;;;-0.03;100.00
71770;BME280;66386;52.122;5.420;2024-01-27T03:15:04;103533.81;;;-0.04;100.00
71770;BME280;66386;52.122;5.420;2024-01-27T03:17:31;103528.91;;;-0.01;100.00
71770;BME280;66386;52.122;5.420;2024-01-27T03:19:57;103533.34;;;0.04;100.00
71770;BME280;66386;52.122;5.420;2024-01-27T03:22:24;103534.34;;;0.07;100.00
71770;BME280;66386;52.122;5.420;2024-01-27T03:24:51;103533.00;;;0.14;100.00
71770;BME280;66386;52.122;5.420;2024-01-27T03:27:19;103530.47;;;0.14;100.00
71770;BME280;66386;52.122;5.420;2024-01-27T03:29:46;103524.22;;;0.07;100.00
71770;BME280;66386;52.122;5.420;2024-01-27T03:32:12;103529.13;;;0.04;100.00
71770;BME280;66386;52.122;5.420;2024-01-27T03:34:45;103529.06;;;0.03;100.00
71770;BME280;66386;52.122;5.420;2024-01-27T03:37:12;103525.03;;;0.06;100.00
71770;BME280;66386;52.122;5.420;2024-01-27T03:39:41;103516.41;;;0.03;100.00
71770;BME280;66386;52.122;5.420;2024-01-27T03:42:08;103530.97;;;0.07;100.00
71770;BME280;66386;52.122;5.420;2024-01-27T03:44:35;103528.03;;;0.15;100.00
71770;BME280;66386;52.122;5.420;2024-01-27T03:47:02;103536.47;;;0.16;100.00
71770;BME280;66386;52.122;5.420;2024-01-27T03:49:28;103529.06;;;0.19;100.00
71770;BME280;66386;52.122;5.420;2024-01-27T03:51:55;103528.03;;;0.15;100.00
71770;BME280;66386;52.122;5.420;2024-01-27T03:54:22;103535.59;;;0.15;100.00
71770;BME280;66386;52.122;5.420;2024-01-27T03:56:48;103542.41;;;0.16;100.00
71770;BME280;66386;52.122;5.420;2024-01-27T03:59:15;103536.66;;;0.19;100.00
71770;BME280;66386;52.122;5.420;2024-01-27T04:01:42;103541.53;;;0.16;100.00
71770;BME280;66386;52.122;5.420;2024-01-27T04:04:08;103553.53;;;0.20;100.00
71770;BME280;66386;52.122;5.420;2024-01-27T04:06:41;103543.41;;;0.20;100.00
71770;BME280;66386;52.122;5.420;2024-01-27T04:09:09;103546.59;;;0.16;100.00
71770;BME280;66386;52.122;5.420;2024-01-27T04:11:36;103538.22;;;0.17;100.00
71770;BME280;66386;52.122;5.420;2024-01-27T04:14:04;103555.13;;;0.18;100.00
71770;BME280;66386;52.122;5.420;2024-01-27T04:16:31;103552.47;;;0.15;100.00
71770;BME280;66386;52.122;5.420;2024-01-27T04:18:57;103563.19;;;0.11;100.00
71770;BME280;66386;52.122;5.420;2024-01-27T04:21:24;103549.44;;;0.06;100.00
71770;BME280;66386;52.122;5.420;2024-01-27T04:23:51;103549.28;;;0.03;100.00
71770;BME280;66386;52.122;5.420;2024-01-27T04:26:18;103545.97;;;0.04;100.00
71770;BME280;66386;52.122;5.420;2024-01-27T04:28:44;103552.94;;;0.08;100.00
71770;BME280;66386;52.122;5.420;2024-01-27T04:31:11;103560.59;;;0.09;100.00
71770;BME280;66386;52.122;5.420;2024-01-27T04:33:38;103551.03;;;0.04;100.00
71770;BME280;66386;52.122;5.420;2024-01-27T04:36:05;103561.00;;;0.01;100.00
71770;BME280;66386;52.122;5.420;2024-01-27T04:38:33;103555.63;;;-0.06;100.00
71770;BME280;66386;52.122;5.420;2024-01-27T04:41:00;103560.53;;;-0.09;100.00
71770;BME280;66386;52.122;5.420;2024-01-27T04:43:27;103561.16;;;-0.13;100.00
71770;BME280;66386;52.122;5.420;2024-01-27T04:45:54;103551.06;;;-0.13;100.00
71770;BME280;66386;52.122;5.420;2024-01-27T04:48:21;103555.97;;;-0.16;100.00
71770;BME280;66386;52.122;5.420;2024-01-27T04:50:48;103552.53;;;-0.16;100.00
71770;BME280;66386;52.122;5.420;2024-01-27T04:53:14;103555.97;;;-0.16;100.00
71770;BME280;66386;52.122;5.420;2024-01-27T04:55:41;103558.56;;;-0.14;100.00
71770;BME280;66386;52.122;5.420;2024-01-27T04:58:07;103563.63;;;-0.14;100.00
71770;BME280;66386;52.122;5.420;2024-01-27T05:00:34;103558.56;;;-0.14;100.00
71770;BME280;66386;52.122;5.420;2024-01-27T05:03:01;103557.03;;;-0.11;100.00
71770;BME280;66386;52.122;5.420;2024-01-27T05:05:30;103555.31;;;-0.12;100.00
71770;BME280;66386;52.122;5.420;2024-01-27T05:08:01;103560.53;;;-0.09;100.00
71770;BME280;66386;52.122;5.420;2024-01-27T05:10:27;103555.16;;;0.02;100.00
71770;BME280;66386;52.122;5.420;2024-01-27T05:12:54;103556.81;;;0.01;100.00
71770;BME280;66386;52.122;5.420;2024-01-27T05:15:22;103561.16;;;0.04;100.00
71770;BME280;66386;52.122;5.420;2024-01-27T05:17:49;103554.34;;;0.03;100.00
71770;BME280;66386;52.122;5.420;2024-01-27T05:20:17;103546.28;;;0.10;100.00
71770;BME280;66386;52.122;5.420;2024-01-27T05:22:43;103536.88;;;0.07;100.00
71770;BME280;66386;52.122;5.420;2024-01-27T05:25:11;103533.34;;;0.04;100.00
71770;BME280;66386;52.122;5.420;2024-01-27T05:27:38;103540.06;;;0.03;100.00
71770;BME280;66386;52.122;5.420;2024-01-27T05:30:07;103533.19;;;0.01;100.00
71770;BME280;66386;52.122;5.420;2024-01-27T05:32:34;103535.50;;;-0.04;100.00
71770;BME280;66386;52.122;5.420;2024-01-27T05:35:01;103533.66;;;-0.07;100.00
71770;BME280;66386;52.122;5.420;2024-01-27T05:37:28;103533.81;;;-0.04;100.00
71770;BME280;66386;52.122;5.420;2024-01-27T05:39:54;103540.00;;;0.02;100.00
71770;BME280;66386;52.122;5.420;2024-01-27T05:42:21;103537.88;;;-0.07;100.00
71770;BME280;66386;52.122;5.420;2024-01-27T05:44:48;103536.81;;;-0.11;100.00
71770;BME280;66386;52.122;5.420;2024-01-27T05:47:15;103531.69;;;-0.12;100.00
71770;BME280;66386;52.122;5.420;2024-01-27T05:49:41;103534.28;;;-0.11;100.00
71770;BME280;66386;52.122;5.420;2024-01-27T05:52:08;103542.66;;;-0.12;100.00
71770;BME280;66386;52.122;5.420;2024-01-27T05:54:35;103530.19;;;-0.09;100.00
71770;BME280;66386;52.122;5.420;2024-01-27T05:57:02;103533.50;;;-0.10;100.00
71770;BME280;66386;52.122;5.420;2024-01-27T05:59:29;103543.00;;;-0.06;100.00
71770;BME280;66386;52.122;5.420;2024-01-27T06:01:56;103543.94;;;-0.04;100.00
71770;BME280;66386;52.122;5.420;2024-01-27T06:04:24;103530.34;;;-0.06;100.00
71770;BME280;66386;52.122;5.420;2024-01-27T06:06:50;103535.50;;;-0.04;100.00
71770;BME280;66386;52.122;5.420;2024-01-27T06:09:17;103529.00;;;0.01;100.00
71770;BME280;66386;52.122;5.420;2024-01-27T06:11:44;103532.63;;;0.06;100.00
71770;BME280;66386;52.122;5.420;2024-01-27T06:14:10;103536.00;;;0.07;100.00
71770;BME280;66386;52.122;5.420;2024-01-27T06:16:37;103538.41;;;0.04;100.00
71770;BME280;66386;52.122;5.420;2024-01-27T06:19:03;103551.19;;;0.07;100.00
71770;BME280;66386;52.122;5.420;2024-01-27T06:21:30;103539.25;;;0.21;100.00
71770;BME280;66386;52.122;5.420;2024-01-27T06:23:57;103543.41;;;0.20;100.00
71770;BME280;66386;52.122;5.420;2024-01-27T06:26:24;103535.69;;;0.17;100.00
71770;BME280;66386;52.122;5.420;2024-01-27T06:28:50;103530.00;;;0.21;100.00
71770;BME280;66386;52.122;5.420;2024-01-27T06:31:17;103539.25;;;0.21;100.00
71770;BME280;66386;52.122;5.420;2024-01-27T06:33:43;103540.75;;;0.17;100.00
71770;BME280;66386;52.122;5.420;2024-01-27T06:36:10;103542.63;;;0.21;100.00
71770;BME280;66386;52.122;5.420;2024-01-27T06:38:37;103550.94;;;0.19;100.00
71770;BME280;66386;52.122;5.420;2024-01-27T06:41:04;103544.78;;;0.13;100.00
71770;BME280;66386;52.122;5.420;2024-01-27T06:43:30;103539.97;;;0.18;100.00
71770;BME280;66386;52.122;5.420;2024-01-27T06:45:57;103543.97;;;0.14;100.00
71770;BME280;66386;52.122;5.420;2024-01-27T06:48:24;103553.09;;;0.11;100.00
71770;BME280;66386;52.122;5.420;2024-01-27T06:50:53;103538.47;;;0.05;100.00
71770;BME280;66386;52.122;5.420;2024-01-27T06:53:20;103550.88;;;0.01;100.00
71770;BME280;66386;52.122;5.420;2024-01-27T06:55:47;103541.25;;;-0.07;100.00
71770;BME280;66386;52.122;5.420;2024-01-27T06:58:13;103546.78;;;-0.14;100.00
71770;BME280;66386;52.122;5.420;2024-01-27T07:00:40;103552.31;;;-0.21;100.00
71770;BME280;66386;52.122;5.420;2024-01-27T07:03:07;103542.81;;;-0.25;100.00
71770;BME280;66386;52.122;5.420;2024-01-27T07:05:38;103560.28;;;-0.30;100.00
71770;BME280;66386;52.122;5.420;2024-01-27T07:08:07;103555.00;;;-0.34;100.00
71770;BME280;66386;52.122;5.420;2024-01-27T07:10:35;103554.03;;;-0.37;100.00
71770;BME280;66386;52.122;5.420;2024-01-27T07:13:01;103561.53;;;-0.38;100.00
71770;BME280;66386;52.122;5.420;2024-01-27T07:15:28;103565.81;;;-0.37;100.00
71770;BME280;66386;52.122;5.420;2024-01-27T07:17:55;103567.41;;;-0.39;100.00
71770;BME280;66386;52.122;5.420;2024-01-27T07:20:22;103585.84;;;-0.40;100.00
71770;BME280;66386;52.122;5.420;2024-01-27T07:22:51;103583.50;;;-0.37;100.00
71770;BME280;66386;52.122;5.420;2024-01-27T07:25:18;103575.22;;;-0.34;100.00
71770;BME280;66386;52.122;5.420;2024-01-27T07:27:44;103586.88;;;-0.37;100.00
71770;BME280;66386;52.122;5.420;2024-01-27T07:30:12;103585.06;;;-0.39;100.00
71770;BME280;66386;52.122;5.420;2024-01-27T07:32:39;103581.50;;;-0.43;100.00
71770;BME280;66386;52.122;5.420;2024-01-27T07:35:07;103586.63;;;-0.41;100.00
71770;BME280;66386;52.122;5.420;2024-01-27T07:37:34;103586.78;;;-0.38;100.00
71770;BME280;66386;52.122;5.420;2024-01-27T07:40:00;103587.59;;;-0.39;100.00
71770;BME280;66386;52.122;5.420;2024-01-27T07:42:28;103592.75;;;-0.38;100.00
71770;BME280;66386;52.122;5.420;2024-01-27T07:44:54;103594.56;;;-0.35;100.00
71770;BME280;66386;52.122;5.420;2024-01-27T07:47:21;103599.69;;;-0.33;100.00
71770;BME280;66386;52.122;5.420;2024-01-27T07:49:48;103594.81;;;-0.30;100.00
71770;BME280;66386;52.122;5.420;2024-01-27T07:52:15;103599.03;;;-0.29;100.00
71770;BME280;66386;52.122;5.420;2024-01-27T07:54:42;103603.41;;;-0.27;100.00
71770;BME280;66386;52.122;5.420;2024-01-27T07:57:09;103602.69;;;-0.24;100.00
71770;BME280;66386;52.122;5.420;2024-01-27T07:59:35;103610.44;;;-0.21;100.00
71770;BME280;66386;52.122;5.420;2024-01-27T08:02:02;103600.50;;;-0.18;100.00
71770;BME280;66386;52.122;5.420;2024-01-27T08:04:29;103603.16;;;-0.15;100.00
71770;BME280;66386;52.122;5.420;2024-01-27T08:06:56;103604.38;;;-0.08;100.00
71770;BME280;66386;52.122;5.420;2024-01-27T08:09:22;103608.06;;;-0.02;100.00
71770;BME280;66386;52.122;5.420;2024-01-27T08:11:50;103610.06;;;0.04;100.00
71770;BME280;66386;52.122;5.420;2024-01-27T08:14:19;103607.13;;;0.13;100.00
71770;BME280;66386;52.122;5.420;2024-01-27T08:16:46;103605.09;;;0.22;100.00
71770;BME280;66386;52.122;5.420;2024-01-27T08:19:13;103606.16;;;0.27;100.00
71770;BME280;66386;52.122;5.420;2024-01-27T08:21:47;103610.75;;;0.34;100.00
71770;BME280;66386;52.122;5.420;2024-01-27T08:24:14;103615.47;;;0.45;100.00
71770;BME280;66386;52.122;5.420;2024-01-27T08:26:41;103615.00;;;0.52;100.00
71770;BME280;66386;52.122;5.420;2024-01-27T08:29:09;103612.75;;;0.58;100.00
71770;BME280;66386;52.122;5.420;2024-01-27T08:31:38;103614.88;;;0.67;100.00
71770;BME280;66386;52.122;5.420;2024-01-27T08:34:05;103616.06;;;0.74;100.00
71770;BME280;66386;52.122;5.420;2024-01-27T08:36:32;103610.50;;;0.81;100.00
71770;BME280;66386;52.122;5.420;2024-01-27T08:39:00;103612.47;;;1.04;100.00
71770;BME280;66386;52.122;5.420;2024-01-27T08:41:27;103613.97;;;1.55;100.00
71770;BME280;66386;52.122;5.420;2024-01-27T08:43:55;103609.72;;;2.13;100.00
71770;BME280;66386;52.122;5.420;2024-01-27T08:46:22;103601.88;;;2.47;100.00
71770;BME280;66386;52.122;5.420;2024-01-27T08:48:48;103609.06;;;3.00;100.00
71770;BME280;66386;52.122;5.420;2024-01-27T08:51:15;103609.19;;;3.71;100.00
71770;BME280;66386;52.122;5.420;2024-01-27T08:53:43;103610.72;;;4.38;100.00
71770;BME280;66386;52.122;5.420;2024-01-27T08:56:16;103609.25;;;4.99;100.00
71770;BME280;66386;52.122;5.420;2024-01-27T08:58:44;103619.53;;;5.58;100.00
71770;BME280;66386;52.122;5.420;2024-01-27T09:01:10;103612.03;;;5.65;100.00
71770;BME280;66386;52.122;5.420;2024-01-27T09:03:39;103616.19;;;5.90;100.00
71770;BME280;66386;52.122;5.420;2024-01-27T09:06:07;103606.44;;;6.40;100.00
71770;BME280;66386;52.122;5.420;2024-01-27T09:08:36;103601.97;;;6.67;100.00
71770;BME280;66386;52.122;5.420;2024-01-27T09:11:03;103606.47;;;6.77;100.00
71770;BME280;66386;52.122;5.420;2024-01-27T09:13:30;103601.63;;;6.18;100.00
71770;BME280;66386;52.122;5.420;2024-01-27T09:15:57;103601.81;;;5.34;100.00
71770;BME280;66386;52.122;5.420;2024-01-27T09:18:24;103604.94;;;4.97;100.00
71770;BME280;66386;52.122;5.420;2024-01-27T09:20:53;103617.84;;;5.01;100.00
71770;BME280;66386;52.122;5.420;2024-01-27T09:23:20;103612.72;;;5.29;100.00
71770;BME280;66386;52.122;5.420;2024-01-27T09:25:47;103613.44;;;4.70;100.00
71770;BME280;66386;52.122;5.420;2024-01-27T09:28:13;103614.75;;;4.09;100.00
71770;BME280;66386;52.122;5.420;2024-01-27T09:30:40;103619.34;;;3.71;100.00
71770;BME280;66386;52.122;5.420;2024-01-27T09:33:07;103621.25;;;3.52;100.00
71770;BME280;66386;52.122;5.420;2024-01-27T09:35:34;103625.31;;;3.48;100.00
71770;BME280;66386;52.122;5.420;2024-01-27T09:38:00;103636.28;;;3.47;100.00
71770;BME280;66386;52.122;5.420;2024-01-27T09:40:27;103636.13;;;3.43;100.00
71770;BME280;66386;52.122;5.420;2024-01-27T09:42:56;103638.59;;;3.41;100.00
71770;BME280;66386;52.122;5.420;2024-01-27T09:45:25;103646.97;;;3.39;100.00
71770;BME280;66386;52.122;5.420;2024-01-27T09:47:53;103651.22;;;3.38;100.00
71770;BME280;66386;52.122;5.420;2024-01-27T09:50:23;103655.66;;;3.44;100.00
71770;BME280;66386;52.122;5.420;2024-01-27T09:52:49;103660.13;;;3.49;100.00
71770;BME280;66386;52.122;5.420;2024-01-27T09:55:16;103662.16;;;3.58;100.00
71770;BME280;66386;52.122;5.420;2024-01-27T09:57:44;103658.91;;;3.62;100.00
71770;BME280;66386;52.122;5.420;2024-01-27T10:00:11;103670.13;;;3.67;100.00
71770;BME280;66386;52.122;5.420;2024-01-27T10:02:42;103671.22;;;3.74;100.00
71770;BME280;66386;52.122;5.420;2024-01-27T10:05:09;103679.06;;;3.80;100.00
71770;BME280;66386;52.122;5.420;2024-01-27T10:07:37;103673.41;;;3.88;100.00
71770;BME280;66386;52.122;5.420;2024-01-27T10:10:04;103677.06;;;3.94;100.00
71770;BME280;66386;52.122;5.420;2024-01-27T10:12:32;103677.28;;;4.00;100.00
71770;BME280;66386;52.122;5.420;2024-01-27T10:15:03;103660.53;;;4.07;100.00
71770;BME280;66386;52.122;5.420;2024-01-27T10:17:30;103656.59;;;4.15;100.00
71770;BME280;66386;52.122;5.420;2024-01-27T10:20:05;103670.41;;;4.22;100.00
71770;BME280;66386;52.122;5.420;2024-01-27T10:22:42;103667.28;;;4.29;100.00
71770;BME280;66386;52.122;5.420;2024-01-27T10:25:09;103669.13;;;4.35;100.00
71770;BME280;66386;52.122;5.420;2024-01-27T10:27:36;103670.28;;;4.43;100.00
71770;BME280;66386;52.122;5.420;2024-01-27T10:30:04;103673.13;;;4.52;100.00
71770;BME280;66386;52.122;5.420;2024-01-27T10:32:30;103678.41;;;4.57;100.00
71770;BME280;66386;52.122;5.420;2024-01-27T10:35:15;103681.25;;;4.66;100.00
71770;BME280;66386;52.122;5.420;2024-01-27T10:37:43;103689.09;;;4.72;100.00
71770;BME280;66386;52.122;5.420;2024-01-27T10:40:10;103688.44;;;4.78;100.00
71770;BME280;66386;52.122;5.420;2024-01-27T10:42:39;103683.63;;;4.87;100.00
71770;BME280;66386;52.122;5.420;2024-01-27T10:45:06;103677.94;;;4.95;100.00
71770;BME280;66386;52.122;5.420;2024-01-27T10:47:33;103682.41;;;5.02;100.00
71770;BME280;66386;52.122;5.420;2024-01-27T10:50:00;103678.44;;;5.10;100.00
71770;BME280;66386;52.122;5.420;2024-01-27T10:52:38;103675.19;;;5.14;100.00
71770;BME280;66386;52.122;5.420;2024-01-27T10:55:05;103671.03;;;5.18;100.00
71770;BME280;66386;52.122;5.420;2024-01-27T10:57:34;103661.81;;;5.21;100.00
71770;BME280;66386;52.122;5.420;2024-01-27T11:00:02;103658.63;;;5.29;100.00
71770;BME280;66386;52.122;5.420;2024-01-27T11:02:33;103654.59;;;5.37;100.00
71770;BME280;66386;52.122;5.420;2024-01-27T11:05:02;103658.09;;;5.39;100.00
71770;BME280;66386;52.122;5.420;2024-01-27T11:07:33;103652.22;;;5.43;100.00
71770;BME280;66386;52.122;5.420;2024-01-27T11:10:01;103652.53;;;5.52;100.00
71770;BME280;66386;52.122;5.420;2024-01-27T11:12:27;103649.34;;;5.59;100.00
71770;BME280;66386;52.122;5.420;2024-01-27T11:14:55;103650.31;;;5.65;100.00
71770;BME280;66386;52.122;5.420;2024-01-27T11:17:25;103648.66;;;5.65;100.00
71770;BME280;66386;52.122;5.420;2024-01-27T11:19:56;103652.16;;;5.69;100.00
71770;BME280;66386;52.122;5.420;2024-01-27T11:22:27;103660.81;;;5.74;100.00
71770;BME280;66386;52.122;5.420;2024-01-27T11:27:36;103651.72;;;5.84;100.00
71770;BME280;66386;52.122;5.420;2024-01-27T11:30:04;103655.22;;;5.87;100.00
71770;BME280;66386;52.122;5.420;2024-01-27T11:32:31;103651.06;;;5.91;100.00
71770;BME280;66386;52.122;5.420;2024-01-27T11:35:00;103648.50;;;5.91;100.00
71770;BME280;66386;52.122;5.420;2024-01-27T11:37:30;103643.59;;;5.97;100.00
71770;BME280;66386;52.122;5.420;2024-01-27T11:40:04;103641.06;;;5.97;100.00
71770;BME280;66386;52.122;5.420;2024-01-27T11:42:32;103640.09;;;5.93;100.00
71770;BME280;66386;52.122;5.420;2024-01-27T11:44:59;103635.06;;;5.97;100.00
71770;BME280;66386;52.122;5.420;2024-01-27T11:47:27;103623.19;;;5.97;100.00
71770;BME280;66386;52.122;5.420;2024-01-27T11:49:55;103627.63;;;6.04;100.00
71770;BME280;66386;52.122;5.420;2024-01-27T11:52:24;103621.66;;;6.04;100.00
71770;BME280;66386;52.122;5.420;2024-01-27T11:54:55;103610.66;;;6.05;100.00
71770;BME280;66386;52.122;5.420;2024-01-27T11:57:22;103609.94;;;6.10;100.00
71770;BME280;66386;52.122;5.420;2024-01-27T11:59:50;103608.38;;;6.16;100.00
71770;BME280;66386;52.122;5.420;2024-01-27T12:02:17;103615.16;;;6.15;100.00
71770;BME280;66386;52.122;5.420;2024-01-27T12:04:44;103614.31;;;6.16;100.00
71770;BME280;66386;52.122;5.420;2024-01-27T12:07:11;103615.91;;;6.11;100.00
71770;BME280;66386;52.122;5.420;2024-01-27T12:09:38;103612.50;;;6.10;100.00
71770;BME280;66386;52.122;5.420;2024-01-27T12:12:06;103618.63;;;6.17;100.00
71770;BME280;66386;52.122;5.420;2024-01-27T12:14:41;103626.31;;;6.19;100.00
71770;BME280;66386;52.122;5.420;2024-01-27T12:17:09;103605.06;;;6.20;100.00
71770;BME280;66386;52.122;5.420;2024-01-27T12:19:37;103617.13;;;6.25;100.00
71770;BME280;66386;52.122;5.420;2024-01-27T12:22:05;103603.56;;;6.26;100.00
71770;BME280;66386;52.122;5.420;2024-01-27T12:24:31;103606.00;;;6.23;100.00
71770;BME280;66386;52.122;5.420;2024-01-27T12:27:01;103598.44;;;6.26;100.00
71770;BME280;66386;52.122;5.420;2024-01-27T12:29:27;103595.94;;;6.28;100.00
71770;BME280;66386;52.122;5.420;2024-01-27T12:31:54;103601.84;;;6.27;100.00
71770;BME280;66386;52.122;5.420;2024-01-27T12:34:21;103592.59;;;6.32;100.00
71770;BME280;66386;52.122;5.420;2024-01-27T12:36:49;103599.38;;;6.30;100.00
71770;BME280;66386;52.122;5.420;2024-01-27T12:39:18;103601.19;;;6.34;100.00
71770;BME280;66386;52.122;5.420;2024-01-27T12:41:46;103598.63;;;6.34;100.00
71770;BME280;66386;52.122;5.420;2024-01-27T12:44:13;103603.69;;;6.33;100.00
71770;BME280;66386;52.122;5.420;2024-01-27T12:46:40;103608.66;;;6.26;100.00
71770;BME280;66386;52.122;5.420;2024-01-27T12:49:07;103603.41;;;6.22;100.00
71770;BME280;66386;52.122;5.420;2024-01-27T12:51:34;103620.50;;;6.24;100.00